Time;durP1;ratioP1;P1;durP2;ratioP2;P2;SDS_P1;SDS_P2;PMS_P1;PMS_P2;Temp;Humidity;BMP_temperature;BMP_pressure;BME280_temperature;BME280_humidity;BME280_pressure;Samples;Min_cycle;Max_cycle;Signal;HPM_P1;HPM_P2
2022/07/30 00:01:33;;;;;;;0.43;0.43;;;19.80;75.80;;;20.25;60.62;94899.38;5030370;28;20223;-79
2022/07/30 00:04:02;;;;;;;0.40;0.40;;;19.70;75.70;;;20.22;60.61;94881.25;4999139;28;20296;-78
2022/07/30 00:06:31;;;;;;;0.50;0.50;;;19.70;76.20;;;20.22;60.88;94891.09;5031128;28;20216;-79
2022/07/30 00:08:58;;;;;;;0.50;0.50;;;19.70;76.40;;;20.19;60.68;94876.44;5031269;28;20195;-79
2022/07/30 00:11:25;;;;;;;0.47;0.47;;;19.70;76.10;;;20.22;60.91;94880.44;5014555;28;20219;-79
2022/07/30 00:13:54;;;;;;;0.40;0.40;;;19.70;76.50;;;20.20;61.25;94879.88;5031095;28;20196;-78
2022/07/30 00:16:22;;;;;;;0.40;0.40;;;19.70;76.30;;;20.21;62.02;94876.19;5031148;28;20215;-79
2022/07/30 00:18:49;;;;;;;0.50;0.50;;;19.60;78.00;;;20.14;61.85;94863.06;4997591;28;20204;-79
2022/07/30 00:21:17;;;;;;;0.40;0.40;;;19.60;77.10;;;20.12;62.07;94876.63;5014853;28;20269;-78
2022/07/30 00:24:03;;;;;;;0.50;0.50;;;19.60;77.40;;;20.10;61.68;94870.78;5016909;28;20726;-79
2022/07/30 00:26:31;;;;;;;0.47;0.47;;;19.60;77.20;;;20.13;62.13;94870.25;5014524;28;20215;-79
2022/07/30 00:28:59;;;;;;;0.50;0.50;;;19.60;77.20;;;20.18;61.99;94863.34;5030884;28;20733;-79
2022/07/30 00:31:27;;;;;;;0.50;0.50;;;19.60;77.40;;;20.21;62.04;94858.31;5029937;28;20626;-79
2022/07/30 00:33:55;;;;;;;0.50;0.50;;;19.70;77.50;;;20.27;61.79;94857.31;5014429;28;20211;-79
2022/07/30 00:36:23;;;;;;;0.43;0.43;;;19.70;77.60;;;20.35;62.21;94856.06;5030978;28;20208;-79
2022/07/30 00:38:50;;;;;;;0.50;0.50;;;19.70;77.80;;;20.41;61.78;94857.69;5030919;28;20250;-80
2022/07/30 00:41:18;;;;;;;0.40;0.40;;;19.70;77.90;;;20.47;61.99;94856.66;5014558;28;20594;-79
2022/07/30 00:43:45;;;;;;;0.40;0.40;;;19.80;77.90;;;20.52;61.88;94849.75;5030917;28;20310;-79
2022/07/30 00:46:13;;;;;;;0.40;0.40;;;19.80;78.00;;;20.57;61.92;94849.81;4998034;28;20215;-79
2022/07/30 00:48:41;;;;;;;0.40;0.40;;;19.90;78.10;;;20.57;62.04;94849.81;5014628;28;20204;-79
2022/07/30 00:51:09;;;;;;;0.40;0.40;;;19.90;78.20;;;20.57;62.33;94853.28;5014289;28;20295;-79
2022/07/30 00:53:37;;;;;;;0.50;0.50;;;19.90;78.10;;;20.58;62.32;94844.22;5030774;28;20281;-79
2022/07/30 00:56:05;;;;;;;0.40;0.40;;;19.90;78.20;;;20.60;61.93;94846.63;5015919;28;20222;-80
2022/07/30 00:58:32;;;;;;;0.40;0.40;;;19.90;78.20;;;20.61;62.13;94842.91;5002165;28;20206;-80
2022/07/30 01:00:59;;;;;;;0.45;0.45;;;19.90;78.20;;;20.61;62.24;94832.25;5034362;28;20215;-80
2022/07/30 01:03:27;;;;;;;0.40;0.40;;;19.90;78.30;;;20.60;62.42;94826.13;5034805;28;20215;-80
2022/07/30 01:05:55;;;;;;;0.40;0.40;;;20.00;78.30;;;20.63;62.36;94828.25;5018002;28;20248;-79
2022/07/30 01:08:22;;;;;;;0.40;0.40;;;20.00;78.30;;;20.66;62.56;94834.94;5034366;28;20200;-79
2022/07/30 01:10:51;;;;;;;0.40;0.40;;;20.00;78.50;;;20.66;62.50;94832.28;5018042;28;20224;-78
2022/07/30 01:13:18;;;;;;;0.43;0.43;;;20.00;78.20;;;20.68;62.05;94835.50;5034158;28;20228;-79
2022/07/30 01:15:46;;;;;;;0.40;0.40;;;20.00;78.50;;;20.69;62.81;94822.97;5001497;28;20212;-79
2022/07/30 01:18:15;;;;;;;0.40;0.40;;;20.00;78.40;;;20.69;62.58;94825.63;5051007;28;20204;-80
2022/07/30 01:21:01;;;;;;;0.40;0.40;;;20.00;78.60;;;20.67;62.25;94811.78;5017595;28;20299;-79
2022/07/30 01:23:41;;;;;;;0.40;0.40;;;20.10;79.30;;;20.67;62.60;94817.91;5034406;28;20184;-80
2022/07/30 01:26:16;;;;;;;0.50;0.50;;;20.10;79.30;;;20.65;62.34;94820.00;5017844;28;20310;-79
2022/07/30 01:28:53;;;;;;;0.45;0.45;;;20.00;78.70;;;20.63;62.30;94811.47;5017824;28;20208;-79
2022/07/30 01:31:25;;;;;;;0.40;0.40;;;20.00;79.00;;;20.60;62.51;94807.47;5017915;28;20220;-79
2022/07/30 01:33:55;;;;;;;0.47;0.47;;;20.00;78.70;;;20.60;62.91;94799.47;5001082;28;20247;-79
2022/07/30 01:36:26;;;;;;;0.43;0.43;;;20.00;78.70;;;20.62;63.08;94796.56;5017762;28;20208;-79
2022/07/30 01:38:54;;;;;;;0.40;0.40;;;20.00;78.90;;;20.57;63.03;94788.53;5033613;28;20200;-80
2022/07/30 01:41:23;;;;;;;0.40;0.40;;;20.00;78.90;;;20.61;62.85;94798.41;5033871;28;20214;-79
2022/07/30 01:43:51;;;;;;;0.40;0.40;;;20.00;79.30;;;20.63;63.42;94806.94;5017455;28;20196;-80
2022/07/30 01:46:21;;;;;;;0.40;0.40;;;20.00;79.40;;;20.62;63.71;94796.56;5033572;28;20234;-80
2022/07/30 01:48:50;;;;;;;0.40;0.40;;;20.00;79.30;;;20.66;63.49;94802.97;5050254;28;20204;-80
2022/07/30 01:51:18;;;;;;;0.40;0.40;;;20.00;79.40;;;20.69;63.59;94801.63;5033407;28;20219;-80
2022/07/30 01:53:52;;;;;;;0.30;0.30;;;20.00;79.40;;;20.71;63.26;94799.53;5017832;28;20315;-80
2022/07/30 01:56:23;;;;;;;0.30;0.30;;;20.10;79.40;;;20.72;63.21;94803.84;5017315;28;20250;-81
2022/07/30 01:58:54;;;;;;;0.40;0.40;;;20.00;79.30;;;20.72;63.34;94798.50;5017550;28;20223;-79
2022/07/30 02:01:26;;;;;;;0.40;0.40;;;20.10;79.50;;;20.71;63.14;94797.66;5002179;28;20255;-79
2022/07/30 02:04:01;;;;;;;0.40;0.40;;;20.10;79.40;;;20.74;63.44;94802.50;5017897;28;20188;-79
2022/07/30 02:07:18;;;;;;;0.40;0.40;;;20.10;79.60;;;20.76;62.99;94802.25;5033340;28;20224;-79
2022/07/30 02:10:01;;;;;;;0.30;0.30;;;20.10;80.30;;;20.79;63.52;94793.75;5038799;28;20201;-79
2022/07/30 02:12:35;;;;;;;0.40;0.40;;;20.10;80.30;;;20.83;63.69;94800.16;5017232;28;20647;-79
2022/07/30 02:15:36;;;;;;;0.45;0.45;;;20.20;79.50;;;20.88;63.06;94802.03;5002015;28;20681;-79
2022/07/30 02:18:16;;;;;;;0.40;0.40;;;20.20;80.30;;;20.87;63.18;94800.44;5034615;28;20193;-79
2022/07/30 02:21:00;;;;;;;0.40;0.40;;;20.20;80.10;;;20.85;63.37;94795.38;5016467;28;20673;-79
2022/07/30 02:23:43;;;;;;;0.40;0.40;;;20.20;80.00;;;20.82;63.36;94793.22;5017485;28;20246;-79
2022/07/30 02:26:20;;;;;;;0.40;0.40;;;20.30;79.90;;;20.80;63.25;94792.69;5016408;28;20216;-79
2022/07/30 02:28:54;;;;;;;0.40;0.40;;;20.20;79.90;;;20.76;63.88;94797.72;5032778;28;20211;-79
2022/07/30 02:31:26;;;;;;;0.40;0.40;;;20.20;79.70;;;20.74;63.82;94799.06;5016215;28;20301;-79
2022/07/30 02:34:00;;;;;;;0.40;0.40;;;20.20;79.80;;;20.69;63.77;94799.78;5016610;28;20282;-78
2022/07/30 02:36:29;;;;;;;0.45;0.45;;;20.10;80.50;;;20.64;64.26;94791.75;5032501;28;20226;-79
2022/07/30 02:38:58;;;;;;;0.50;0.50;;;20.10;79.80;;;20.62;64.25;94789.34;5016204;28;20205;-78
2022/07/30 02:41:28;;;;;;;0.30;0.30;;;20.10;80.90;;;20.55;64.04;94790.66;5032383;28;20228;-79
2022/07/30 02:43:56;;;;;;;0.40;0.40;;;20.00;80.30;;;20.46;64.68;94788.47;5016067;28;20623;-79
2022/07/30 02:46:25;;;;;;;0.43;0.43;;;20.00;80.10;;;;;;5032618;28;20240;-79
2022/07/30 02:49:21;;;;;;;0.40;0.40;;;19.90;80.40;;;20.31;64.79;94783.03;5032602;28;20661;-78
2022/07/30 02:51:50;;;;;;;0.60;0.60;;;19.90;80.90;;;20.27;65.16;94787.28;5016108;28;20223;-78
2022/07/30 02:54:19;;;;;;;0.50;0.50;;;19.80;80.70;;;20.22;65.45;94787.25;5015852;28;20227;-79
2022/07/30 02:56:48;;;;;;;0.40;0.40;;;19.70;81.50;;;20.15;65.76;94790.94;4999684;28;20223;-79
2022/07/30 02:59:19;;;;;;;0.40;0.40;;;19.70;81.50;;;20.12;66.17;94786.09;5015863;28;20246;-80
2022/07/30 03:01:48;;;;;;;0.40;0.40;;;19.60;81.40;;;20.06;65.71;94789.78;5015910;28;20306;-79
2022/07/30 03:04:19;;;;;;;0.50;0.50;;;19.60;81.40;;;20.00;66.31;94786.25;4999507;28;20196;-79
2022/07/30 03:06:48;;;;;;;0.40;0.40;;;19.50;82.30;;;19.97;65.89;94783.34;5015791;28;20215;-79
2022/07/30 03:09:17;;;;;;;0.40;0.40;;;19.50;81.80;;;19.92;66.36;94791.25;5032076;28;20242;-79
2022/07/30 03:11:47;;;;;;;0.47;0.47;;;19.50;82.00;;;19.93;66.31;94795.53;4999351;28;20273;-78
2022/07/30 03:14:15;;;;;;;0.40;0.40;;;19.50;82.00;;;19.90;66.77;94786.19;5031882;28;20286;-79
2022/07/30 03:16:47;;;;;;;0.40;0.40;;;19.40;82.00;;;19.87;67.10;94785.91;5015641;28;20239;-79
2022/07/30 03:19:19;;;;;;;0.50;0.50;;;19.40;83.00;;;19.84;67.12;94785.34;4999526;28;20200;-79
2022/07/30 03:21:49;;;;;;;0.43;0.43;;;19.40;83.40;;;19.79;66.81;94784.47;5015656;28;20211;-79
2022/07/30 03:24:18;;;;;;;0.40;0.40;;;19.30;82.80;;;19.71;66.69;94775.06;5031676;28;20582;-79
2022/07/30 03:26:47;;;;;;;0.40;0.40;;;19.30;83.00;;;19.79;67.47;94785.28;4999247;28;20222;-79
2022/07/30 03:29:17;;;;;;;0.40;0.40;;;19.30;82.90;;;19.77;67.46;94792.69;5015444;28;20187;-79
2022/07/30 03:31:49;;;;;;;0.40;0.40;;;19.30;82.90;;;19.76;67.47;94787.63;5015716;28;20219;-78
2022/07/30 03:34:17;;;;;;;0.40;0.40;;;19.30;83.30;;;19.74;67.53;94784.41;5031708;28;20254;-78
2022/07/30 03:36:46;;;;;;;0.40;0.40;;;19.30;83.70;;;19.71;67.37;94785.72;4999061;28;20659;-78
2022/07/30 03:39:14;;;;;;;0.50;0.50;;;19.20;83.10;;;19.70;68.04;94791.31;5015098;28;20196;-78
2022/07/30 03:41:42;;;;;;;0.60;0.60;;;19.20;83.20;;;19.72;67.73;94797.19;5015207;28;20286;-78
2022/07/30 03:44:14;;;;;;;0.40;0.40;;;19.20;83.50;;;19.72;68.12;94794.53;5031369;28;20584;-78
2022/07/30 03:46:42;;;;;;;0.50;0.50;;;19.30;83.60;;;19.71;67.56;94791.03;5014854;28;20219;-79
2022/07/30 03:49:10;;;;;;;0.50;0.50;;;19.30;83.40;;;19.73;68.03;94788.94;5014996;28;20194;-79
2022/07/30 03:51:42;;;;;;;0.30;0.30;;;19.30;83.60;;;19.73;67.60;94798.78;5031140;28;20216;-79
2022/07/30 03:54:11;;;;;;;0.40;0.40;;;19.30;83.70;;;19.68;67.87;94792.34;5014846;28;20315;-78
2022/07/30 03:56:40;;;;;;;0.40;0.40;;;19.20;84.00;;;19.71;68.06;94799.03;5047864;28;20216;-78
2022/07/30 03:59:16;;;;;;;0.45;0.45;;;19.30;83.70;;;19.73;68.12;94801.47;5031181;28;20192;-78
2022/07/30 04:01:44;;;;;;;0.47;0.47;;;19.30;83.70;;;19.75;68.28;94809.97;5014986;28;20216;-78
2022/07/30 04:04:20;;;;;;;0.40;0.40;;;19.30;83.50;;;19.77;67.93;94803.34;5016218;28;20291;-78
2022/07/30 04:06:49;;;;;;;0.50;0.50;;;19.30;83.70;;;19.78;67.98;94806.81;5015054;28;20322;-78
2022/07/30 04:09:19;;;;;;;0.40;0.40;;;19.30;83.80;;;19.76;67.83;94801.75;5031000;28;20229;-78
2022/07/30 04:11:47;;;;;;;0.40;0.40;;;19.30;83.90;;;19.78;67.95;94818.25;5030970;28;20697;-78
2022/07/30 04:14:20;;;;;;;0.40;0.40;;;19.30;84.00;;;19.75;68.21;94816.13;5015447;28;20298;-78
2022/07/30 04:16:57;;;;;;;0.50;0.50;;;19.30;84.10;;;19.74;68.00;94825.16;4998244;28;20227;-78
2022/07/30 04:19:31;;;;;;;0.40;0.40;;;19.30;84.20;;;19.73;68.21;94825.41;5014908;28;20196;-78
2022/07/30 04:22:01;;;;;;;0.40;0.40;;;19.30;84.60;;;19.65;68.38;94822.16;5014547;28;20220;-78
2022/07/30 04:24:31;;;;;;;0.47;0.47;;;19.30;84.30;;;19.67;68.82;94825.34;5015059;28;20196;-78
2022/07/30 04:27:00;;;;;;;0.40;0.40;;;19.30;84.50;;;19.64;68.55;94822.38;5014683;28;20624;-78
2022/07/30 04:29:29;;;;;;;0.40;0.40;;;19.20;84.60;;;19.66;68.63;94828.25;5014858;28;20661;-78
2022/07/30 04:31:57;;;;;;;0.40;0.40;;;19.20;84.90;;;19.68;68.85;94834.94;5033510;28;20226;-78
2022/07/30 04:34:27;;;;;;;0.50;0.50;;;19.20;84.90;;;19.72;68.94;94834.44;5034843;28;20647;-78
2022/07/30 04:36:55;;;;;;;0.50;0.50;;;19.20;84.80;;;19.68;69.02;94823.50;5034734;28;20233;-78
2022/07/30 04:39:24;;;;;;;0.45;0.45;;;19.20;84.80;;;19.68;68.75;94831.47;5018645;28;20196;-78
2022/07/30 04:41:51;;;;;;;0.50;0.50;;;19.20;84.80;;;19.68;69.20;94836.81;5034996;28;20208;-78
2022/07/30 04:44:38;;;;;;;0.40;0.40;;;19.20;84.90;;;19.70;69.05;94837.34;5034973;28;20203;-78
2022/07/30 04:47:26;;;;;;;0.40;0.40;;;19.20;84.80;;;19.73;69.32;94836.84;5035001;28;20227;-78
2022/07/30 04:50:10;;;;;;;0.47;0.47;;;19.30;85.20;;;19.73;69.04;94834.19;5034669;28;20668;-78
2022/07/30 04:52:38;;;;;;;0.40;0.40;;;19.30;85.30;;;19.70;69.32;94829.38;5018329;28;20286;-79
2022/07/30 04:55:08;;;;;;;0.43;0.43;;;19.20;85.30;;;19.65;68.86;94826.66;5034537;28;20200;-79
2022/07/30 04:57:39;;;;;;;0.40;0.40;;;19.30;85.20;;;19.74;69.57;94830.47;5018282;28;20311;-79
2022/07/30 05:00:08;;;;;;;0.40;0.40;;;19.20;85.50;;;19.72;69.54;94823.78;5018217;28;20200;-79
2022/07/30 05:02:40;;;;;;;0.50;0.50;;;19.20;85.30;;;19.72;69.19;94829.91;4987370;28;20220;-79
2022/07/30 05:05:11;;;;;;;0.38;0.38;;;19.30;85.40;;;19.74;69.53;94833.13;5018510;28;20654;-79
2022/07/30 05:07:39;;;;;;;0.40;0.40;;;19.30;85.80;;;19.76;69.14;94835.53;5017986;28;20220;-78
2022/07/30 05:10:10;;;;;;;0.40;0.40;;;19.30;85.40;;;19.77;69.52;94842.47;5050467;28;20640;-78
2022/07/30 05:12:39;;;;;;;0.50;0.50;;;19.30;85.50;;;19.76;69.59;94833.69;5002175;28;20224;-78
2022/07/30 05:15:09;;;;;;;0.40;0.40;;;19.30;85.50;;;19.74;69.71;94833.13;5050682;28;20242;-78
2022/07/30 05:17:37;;;;;;;0.50;0.50;;;19.30;85.50;;;19.73;69.14;94830.72;5034415;28;20257;-78
2022/07/30 05:20:08;;;;;;;0.40;0.40;;;19.30;85.60;;;19.70;69.37;94831.22;5002486;28;20659;-78
2022/07/30 05:22:54;;;;;;;0.40;0.40;;;19.30;85.50;;;19.69;70.00;94833.09;5034806;28;20677;-78
2022/07/30 05:25:23;;;;;;;0.50;0.50;;;19.30;85.60;;;19.72;70.29;94837.91;5033908;28;20236;-78
2022/07/30 05:27:53;;;;;;;0.40;0.40;;;19.30;86.00;;;19.68;69.60;94826.16;5018034;28;20203;-78
2022/07/30 05:30:21;;;;;;;0.40;0.40;;;19.30;85.80;;;19.66;69.70;94820.28;5017735;28;20200;-78
2022/07/30 05:32:56;;;;;;;0.50;0.50;;;19.30;85.80;;;19.66;70.04;94826.41;5018495;28;20732;-78
2022/07/30 05:35:24;;;;;;;0.40;0.40;;;19.30;85.90;;;19.65;69.96;94818.66;5033780;28;20219;-78
2022/07/30 05:37:52;;;;;;;0.40;0.40;;;19.30;86.10;;;19.66;70.15;94829.06;5033740;28;20223;-78
2022/07/30 05:40:22;;;;;;;0.43;0.43;;;19.20;86.30;;;19.65;69.78;94835.44;5017751;28;20556;-78
2022/07/30 05:43:05;;;;;;;0.50;0.50;;;19.20;86.20;;;19.64;70.31;94833.00;5019654;28;20627;-78
2022/07/30 05:45:33;;;;;;;0.50;0.50;;;19.20;86.40;;;19.63;70.48;94824.25;5034320;28;20311;-78
2022/07/30 05:48:00;;;;;;;0.50;0.50;;;19.20;86.70;;;19.64;70.11;94828.50;5033770;28;20196;-78
2022/07/30 05:50:29;;;;;;;0.40;0.40;;;19.20;86.90;;;19.62;70.62;94827.94;5033647;28;20231;-78
2022/07/30 05:52:57;;;;;;;0.50;0.50;;;19.20;87.00;;;19.63;71.10;94832.22;5033687;28;20557;-78
2022/07/30 05:55:50;;;;;;;0.40;0.40;;;19.20;87.00;;;19.62;71.12;94832.47;5040745;28;20306;-78
2022/07/30 05:58:36;;;;;;;0.40;0.40;;;19.30;86.90;;;19.68;70.65;94840.25;5020427;28;20684;-79
2022/07/30 06:01:04;;;;;;;0.40;0.40;;;19.30;87.20;;;19.68;71.02;94834.94;5017282;28;20220;-79
2022/07/30 06:03:33;;;;;;;0.40;0.40;;;19.30;87.40;;;19.74;71.24;94841.13;5001203;28;20199;-78
2022/07/30 06:06:36;;;;;;;0.50;0.50;;;19.30;87.40;;;19.80;71.42;94839.31;5020674;28;20286;-78
2022/07/30 06:09:04;;;;;;;0.40;0.40;;;19.40;87.50;;;19.86;71.21;94850.81;5013192;28;20203;-78
2022/07/30 06:11:31;;;;;;;0.40;0.40;;;19.40;87.60;;;19.86;71.13;94856.97;5033009;28;20216;-78
2022/07/30 06:13:59;;;;;;;0.50;0.50;;;19.40;87.70;;;19.89;71.48;94845.00;5016500;28;20705;-79
2022/07/30 06:16:27;;;;;;;0.40;0.40;;;19.40;87.90;;;19.92;71.67;94847.16;5033199;28;20222;-79
2022/07/30 06:18:55;;;;;;;0.40;0.40;;;19.40;88.10;;;19.96;70.89;94851.72;5033123;28;20246;-79
2022/07/30 06:21:35;;;;;;;0.40;0.40;;;19.40;88.00;;;19.96;71.49;94849.06;5018183;28;20266;-78
2022/07/30 06:24:24;;;;;;;0.40;0.40;;;19.50;88.00;;;20.00;70.91;94846.72;5005963;28;20578;-78
2022/07/30 06:27:05;;;;;;;0.40;0.40;;;19.50;87.80;;;20.03;70.86;94848.06;5049500;28;20713;-77
2022/07/30 06:29:32;;;;;;;0.40;0.40;;;19.50;87.90;;;20.07;71.61;94860.63;5049169;28;20227;-77
2022/07/30 06:32:00;;;;;;;0.45;0.45;;;19.60;88.20;;;20.08;70.86;94856.09;5000250;28;20234;-77
2022/07/30 06:34:27;;;;;;;0.40;0.40;;;19.60;88.20;;;20.15;71.70;94852.16;5032596;28;20235;-77
2022/07/30 06:36:55;;;;;;;0.43;0.43;;;19.70;88.60;;;20.21;71.29;94860.19;5032415;28;20210;-79
2022/07/30 06:39:23;;;;;;;0.45;0.45;;;19.70;88.30;;;20.24;71.59;94865.03;5016207;28;20214;-78
2022/07/30 06:42:26;;;;;;;0.40;0.40;;;19.80;88.10;;;20.21;71.04;94849.53;5017477;28;20220;-77
2022/07/30 06:45:19;;;;;;;0.50;0.50;;;19.80;87.90;;;20.25;71.53;94859.44;5012932;28;20228;-77
2022/07/30 06:48:06;;;;;;;0.40;0.40;;;19.80;87.90;;;20.27;71.56;94864.50;5012976;28;20205;-77
2022/07/30 06:50:36;;;;;;;0.40;0.40;;;19.80;88.10;;;20.28;71.00;94858.13;5000623;28;20224;-78
2022/07/30 06:53:03;;;;;;;0.40;0.40;;;19.80;88.00;;;20.29;71.42;94863.19;5013653;28;20257;-78
2022/07/30 06:55:50;;;;;;;0.40;0.40;;;19.80;88.30;;;20.32;71.63;94856.53;5032261;28;20212;-77
2022/07/30 06:58:27;;;;;;;0.43;0.43;;;19.90;88.30;;;20.37;71.29;94859.25;5016875;28;20646;-77
2022/07/30 07:01:22;;;;;;;0.40;0.40;;;19.90;88.20;;;20.37;71.59;94853.13;5031728;28;20224;-78
2022/07/30 07:03:50;;;;;;;0.40;0.40;;;20.00;88.00;;;20.38;71.49;94870.72;5017259;28;20215;-79
2022/07/30 07:06:17;;;;;;;0.40;0.40;;;19.90;87.90;;;20.39;71.34;94862.47;5023557;28;20213;-78
2022/07/30 07:08:44;;;;;;;0.38;0.38;;;19.90;87.90;;;20.41;71.65;94864.88;5020022;28;20192;-78
2022/07/30 07:11:15;;;;;;;0.40;0.40;;;20.00;89.00;;;20.44;71.70;94861.72;4996658;28;20223;-78
2022/07/30 07:13:52;;;;;;;0.40;0.40;;;20.00;88.30;;;20.48;71.74;94858.28;4998936;28;20235;-78
2022/07/30 07:16:29;;;;;;;0.70;0.70;;;20.00;88.50;;;20.53;71.76;94848.72;4997414;28;20597;-78
2022/07/30 07:19:01;;;;;;;0.40;0.40;;;20.10;88.90;;;20.60;71.74;94849.28;4996432;28;20209;-79
2022/07/30 07:21:29;;;;;;;0.40;0.40;;;20.10;89.30;;;20.69;72.49;94853.09;4995647;28;20586;-79
2022/07/30 07:23:59;;;;;;;0.30;0.30;;;20.20;89.40;;;20.75;71.75;94852.09;4979698;28;20200;-78
2022/07/30 07:26:50;;;;;;;0.50;0.50;;;20.30;89.20;;;20.77;71.84;94852.63;5012156;28;20637;-78
2022/07/30 07:29:19;;;;;;;0.35;0.35;;;20.30;88.50;;;20.77;71.75;94851.84;4996048;28;20243;-79
2022/07/30 07:31:46;;;;;;;0.40;0.40;;;20.30;88.20;;;20.76;71.62;94852.88;4995667;28;20307;-78
2022/07/30 07:34:34;;;;;;;0.47;0.47;;;20.30;88.10;;;20.72;71.61;94843.81;4998693;28;20234;-78
2022/07/30 07:37:01;;;;;;;0.40;0.40;;;20.30;87.90;;;20.71;71.74;94847.50;5011698;28;20216;-78
2022/07/30 07:39:29;;;;;;;0.40;0.40;;;20.30;88.20;;;20.75;71.92;94845.94;4995521;28;20292;-79
2022/07/30 07:41:57;;;;;;;0.40;0.40;;;20.30;88.20;;;20.76;71.77;94845.72;4995162;28;20311;-78
2022/07/30 07:44:28;;;;;;;0.40;0.40;;;20.30;88.30;;;20.81;72.06;94839.59;4995760;28;20224;-77
2022/07/30 07:46:55;;;;;;;0.40;0.40;;;20.40;88.60;;;20.87;71.82;94837.75;5011191;28;20219;-78
2022/07/30 07:49:26;;;;;;;0.40;0.40;;;20.40;88.80;;;20.92;72.06;94832.44;5011671;28;20236;-78
2022/07/30 07:51:53;;;;;;;0.40;0.40;;;20.40;88.50;;;20.94;71.86;94836.44;4995416;28;20268;-77
2022/07/30 07:54:22;;;;;;;0.40;0.40;;;20.50;88.50;;;20.94;72.15;94831.13;5011904;28;20223;-78
2022/07/30 07:56:55;;;;;;;0.40;0.40;;;20.50;88.80;;;21.02;72.12;94835.19;5011529;28;20243;-78
2022/07/30 07:59:36;;;;;;;0.40;0.40;;;20.50;89.00;;;21.09;71.90;94840.25;4983500;28;20205;-79
2022/07/30 08:02:23;;;;;;;0.40;0.40;;;20.60;89.30;;;21.17;72.30;94842.44;5011320;28;20243;-78
2022/07/30 08:05:04;;;;;;;0.40;0.40;;;20.70;89.40;;;21.28;72.41;94836.06;4996368;28;20575;-77
2022/07/30 08:07:51;;;;;;;0.40;0.40;;;20.80;89.60;;;21.38;72.10;94840.63;5011877;28;20208;-78
2022/07/30 08:10:48;;;;;;;0.50;0.50;;;20.80;89.50;;;21.41;71.88;94837.47;5003479;28;20232;-77
2022/07/30 08:13:35;;;;;;;0.40;0.40;;;20.90;89.20;;;21.52;72.09;94842.81;4998014;28;20670;-78
2022/07/30 08:16:34;;;;;;;0.45;0.45;;;21.00;89.70;;;21.68;72.59;94841.84;4999547;28;20615;-79
2022/07/30 08:19:26;;;;;;;0.40;0.40;;;21.20;90.00;;;21.85;72.41;94840.78;5015352;28;20204;-78
2022/07/30 08:22:13;;;;;;;0.45;0.45;;;21.30;89.90;;;21.94;72.03;94830.41;5022967;28;20232;-78
2022/07/30 08:24:41;;;;;;;0.40;0.40;;;21.50;89.60;;;22.06;71.93;94841.63;5004245;28;20222;-78
2022/07/30 08:27:08;;;;;;;0.30;0.30;;;21.50;89.10;;;22.12;70.93;94834.41;4995658;28;20209;-77
2022/07/30 08:29:36;;;;;;;0.40;0.40;;;21.60;88.60;;;22.20;71.31;94828.53;5003475;28;20202;-78
2022/07/30 08:32:04;;;;;;;0.30;0.30;;;21.70;88.90;;;22.31;71.51;94830.13;5006302;28;20230;-78
2022/07/30 08:34:35;;;;;;;0.50;0.50;;;21.80;89.40;;;22.42;71.81;94830.16;5003710;28;20720;-79
2022/07/30 08:37:03;;;;;;;0.40;0.40;;;21.90;89.00;;;22.51;71.33;94832.03;4996486;28;20282;-78
2022/07/30 08:39:30;;;;;;;0.40;0.40;;;22.00;89.10;;;22.61;71.22;94830.41;4997083;28;20198;-78
2022/07/30 08:42:00;;;;;;;0.40;0.40;;;22.00;87.90;;;22.61;70.62;94825.84;5011022;28;20228;-77
2022/07/30 08:44:29;;;;;;;0.30;0.30;;;22.10;87.50;;;22.66;69.62;94825.06;5020756;28;20655;-80
2022/07/30 08:46:58;;;;;;;0.35;0.35;;;22.10;86.50;;;22.67;70.09;94830.13;5014081;28;20370;-78
2022/07/30 08:49:40;;;;;;;0.30;0.30;;;22.20;87.00;;;22.66;69.72;94833.06;5015088;28;20224;-78
2022/07/30 08:52:10;;;;;;;0.30;0.30;;;22.20;86.90;;;22.67;69.16;94829.34;5013776;28;20227;-78
2022/07/30 08:54:41;;;;;;;0.40;0.40;;;22.30;86.10;;;22.74;69.52;94829.03;5014659;28;20232;-77
2022/07/30 08:57:10;;;;;;;0.40;0.40;;;22.30;86.80;;;22.81;69.96;94835.72;5029313;28;20232;-78
2022/07/30 08:59:38;;;;;;;0.40;0.40;;;22.40;87.20;;;22.92;70.42;94825.78;5014285;28;20733;-78
2022/07/30 09:02:30;;;;;;;0.40;0.40;;;22.50;87.60;;;23.02;69.48;94831.13;5017073;28;20308;-79
2022/07/30 09:05:04;;;;;;;0.40;0.40;;;22.50;86.40;;;23.09;69.56;94835.38;5015341;28;20200;-79
2022/07/30 09:07:33;;;;;;;0.40;0.40;;;22.60;86.30;;;23.13;69.50;94831.88;5030694;28;20208;-78
2022/07/30 09:10:07;;;;;;;0.40;0.40;;;22.70;86.00;;;23.16;69.25;94838.56;5014447;28;20674;-78
2022/07/30 09:12:43;;;;;;;0.35;0.35;;;22.70;85.70;;;23.20;69.20;94838.84;5013904;28;20694;-80
2022/07/30 09:15:16;;;;;;;0.40;0.40;;;22.80;85.30;;;23.25;68.09;94836.16;5021958;28;20223;-79
2022/07/30 09:18:01;;;;;;;0.50;0.50;;;22.80;83.70;;;23.22;68.09;94832.13;5004884;28;20195;-81
2022/07/30 09:20:36;;;;;;;0.40;0.40;;;22.80;83.70;;;23.29;67.32;94835.31;4999153;28;20548;-80
2022/07/30 09:23:07;;;;;;;0.38;0.38;;;22.90;82.20;;;23.30;67.23;94842.28;4999702;28;20283;-79
2022/07/30 09:25:59;;;;;;;0.30;0.30;;;22.90;83.50;;;23.36;67.55;94827.00;5014288;28;20221;-78
2022/07/30 09:28:45;;;;;;;0.40;0.40;;;22.90;83.10;;;23.47;66.95;94831.25;5014966;28;20207;-78
2022/07/30 09:31:13;;;;;;;0.40;0.40;;;23.00;82.70;;;23.54;66.65;94828.25;5017503;28;20429;-78
2022/07/30 09:34:29;;;;;;;0.30;0.30;;;23.10;82.30;;;23.60;65.82;94832.50;5033493;28;20299;-79
2022/07/30 09:37:07;;;;;;;0.50;0.50;;;23.20;79.00;;;23.66;65.73;94835.94;5033614;28;20220;-78
2022/07/30 09:39:53;;;;;;;0.60;0.60;;;23.30;81.40;;;23.74;65.59;94834.56;5033930;28;20215;-79
2022/07/30 09:43:09;;;;;;;0.40;0.40;;;23.40;81.50;;;23.79;64.49;94826.47;5029082;28;20594;-78
2022/07/30 09:45:51;;;;;;;0.40;0.40;;;23.50;78.40;;;23.82;63.29;94837.44;5017587;28;20623;-79
2022/07/30 09:48:26;;;;;;;0.40;0.40;;;23.50;78.30;;;23.79;62.97;94840.69;5018030;28;20661;-78
2022/07/30 09:50:55;;;;;;;0.30;0.30;;;23.60;78.60;;;23.80;62.42;94839.63;5033515;28;20208;-78
2022/07/30 09:53:24;;;;;;;0.40;0.40;;;23.50;77.80;;;23.77;62.59;94839.38;5033519;28;20196;-78
2022/07/30 09:55:51;;;;;;;0.30;0.30;;;23.50;77.80;;;23.76;62.81;94848.47;5017012;28;20238;-78
2022/07/30 09:58:19;;;;;;;0.40;0.40;;;23.50;77.80;;;23.74;62.57;94837.22;5017308;28;20653;-78
2022/07/30 10:00:57;;;;;;;0.30;0.30;;;23.50;77.80;;;23.77;62.87;94839.38;5017932;28;20681;-78
2022/07/30 10:03:49;;;;;;;0.40;0.40;;;23.50;78.20;;;23.86;63.77;94839.59;5020615;28;20208;-78
2022/07/30 10:06:35;;;;;;;0.40;0.40;;;23.60;79.10;;;24.00;63.82;94827.19;5018473;28;20221;-78
2022/07/30 10:09:27;;;;;;;0.40;0.40;;;23.70;78.60;;;24.16;63.87;94825.19;5035497;28;20210;-78
2022/07/30 10:11:57;;;;;;;0.60;0.60;;;23.80;78.70;;;24.32;63.53;94827.75;5016949;28;20237;-78
2022/07/30 10:14:32;;;;;;;0.60;0.60;;;24.00;78.70;;;24.46;63.02;94829.50;5016731;28;20216;-78
2022/07/30 10:17:02;;;;;;;0.30;0.30;;;24.10;77.90;;;24.54;62.57;94830.78;5000983;28;20289;-78
2022/07/30 10:19:35;;;;;;;0.57;0.57;;;24.20;78.10;;;24.59;61.65;94820.00;5017353;28;20246;-78
2022/07/30 10:22:27;;;;;;;0.40;0.40;;;24.30;76.70;;;24.66;61.16;94832.28;5020466;28;20222;-78
2022/07/30 10:25:21;;;;;;;0.30;0.30;;;24.40;76.20;;;24.67;61.19;94826.66;5033210;28;20660;-78
2022/07/30 10:28:31;;;;;;;0.40;0.40;;;24.50;76.00;;;24.70;61.41;94827.97;5021771;28;20575;-79
2022/07/30 10:31:06;;;;;;;0.32;0.32;;;24.50;76.50;;;24.76;61.39;94827.63;5017424;28;20699;-78
2022/07/30 10:33:54;;;;;;;0.40;0.40;;;24.60;76.50;;;24.83;61.30;94819.25;5005635;28;20214;-79
2022/07/30 10:36:23;;;;;;;0.60;0.60;;;24.60;76.10;;;24.85;59.57;94814.41;5032608;28;20230;-78
2022/07/30 10:38:51;;;;;;;0.30;0.30;;;24.70;74.80;;;24.84;60.17;94814.69;5000501;28;20200;-78
2022/07/30 10:42:27;;;;;;;0.32;0.32;;;24.70;75.40;;;24.85;60.81;94811.72;5032560;28;20581;-78
2022/07/30 10:45:18;;;;;;;0.30;0.30;;;24.70;74.70;;;24.91;60.15;94817.81;5031445;28;20204;-78
2022/07/30 10:47:46;;;;;;;0.30;0.30;;;24.80;75.20;;;24.85;59.88;94817.09;5000442;28;20392;-79
2022/07/30 10:50:25;;;;;;;0.30;0.30;;;24.80;74.80;;;24.87;59.90;94812.22;5032354;28;20203;-79